This is the latest recevied weather packets stored in our database for station/object IW2DGQ-3. If no packets are shown the sender has not sent any weather packets the latest 10 day(s).
| Time | Temp. | Humidity | Pressure | Rain* | Wind** | Luminosity | Snow |
|---|---|---|---|---|---|---|---|
| 1777613249 | 20.56° C | 44% | 1028.4 hPa | - | - | - | - |
| 1777612045 | 15.56° C | 55% | 1028.2 hPa | - | - | - | - |
| 1777610842 | 7.78° C | 61% | 1028.1 hPa | - | - | - | - |
| 1777609638 | 7.22° C | 62% | 1027.9 hPa | - | - | - | - |
| 1777608435 | 6.67° C | 63% | 1027.7 hPa | - | - | - | - |
| 1777607231 | 6.67° C | 63% | 1027.6 hPa | - | - | - | - |
| 1777606028 | 7.22° C | 62% | 1027.6 hPa | - | - | - | - |
| 1777601214 | 7.22° C | 61% | 1027.4 hPa | - | - | - | - |
| 1777600010 | 7.22° C | 61% | 1027.3 hPa | - | - | - | - |
| 1777595196 | 7.78° C | 57% | 1027.7 hPa | - | - | - | - |
| 1777593993 | 8.33° C | 55% | 1027.7 hPa | - | - | - | - |
| 1777592789 | 8.89° C | 55% | 1027.5 hPa | - | - | - | - |
| 1777589178 | 8.89° C | 53% | 1027.4 hPa | - | - | - | - |
| 1777587974 | 8.89° C | 53% | 1027.2 hPa | - | - | - | - |
| 1777585566 | 8.89° C | 51% | 1026.9 hPa | - | - | - | - |
| 1777584362 | 9.44° C | 50% | 1026.8 hPa | - | - | - | - |
| 1777583158 | 10° C | 48% | 1026.7 hPa | - | - | - | - |
| 1777581954 | 10° C | 47% | 1026.5 hPa | - | - | - | - |
| 1777580750 | 10.56° C | 46% | 1026.4 hPa | - | - | - | - |
| 1777577139 | 11.67° C | 41% | 1025.7 hPa | - | - | - | - |
| 1777575935 | 12.22° C | 39% | 1025.5 hPa | - | - | - | - |
| 1777574731 | 12.22° C | 39% | 1025.1 hPa | - | - | - | - |
| 1777573528 | 13.33° C | 36% | 1024.9 hPa | - | - | - | - |
| 1777572325 | 14.44° C | 32% | 1024.6 hPa | - | - | - | - |
| 1777571121 | 15.56° C | 31% | 1024.5 hPa | - | - | - | - |
* Rain since midnight (hover to see other rain measurements)
** Current wind speed in m/s (hover to see current wind gust speed)